createdAt,value
2022-09-30T00:01:42.131Z,99802.52
2022-09-30T00:04:35.462Z,99802.79
2022-09-30T00:07:02.353Z,99805.79
2022-09-30T00:09:29.139Z,99802.31
2022-09-30T00:11:56.054Z,99804.80
2022-09-30T00:14:24.199Z,99798.81
2022-09-30T00:16:51.387Z,99796.73
2022-09-30T00:19:18.360Z,99800.45
2022-09-30T00:21:45.794Z,99802.06
2022-09-30T00:24:12.864Z,99806.48
2022-09-30T00:26:39.899Z,99809.45
2022-09-30T00:29:07.154Z,99808.39
2022-09-30T00:31:35.948Z,99808.59
2022-09-30T00:34:12.361Z,99811.59
2022-09-30T00:36:43.364Z,99816.54
2022-09-30T00:39:16.359Z,99822.00
2022-09-30T00:41:44.066Z,99818.02
2022-09-30T00:44:51.177Z,99815.83
2022-09-30T00:47:31.363Z,99820.94
2022-09-30T00:50:02.805Z,99820.23
2022-09-30T00:52:30.748Z,99812.34
2022-09-30T00:55:01.277Z,99812.83
2022-09-30T00:57:29.943Z,99816.67
2022-09-30T00:59:56.980Z,99825.63
2022-09-30T01:02:24.438Z,99823.89
2022-09-30T01:04:51.420Z,99820.60
2022-09-30T01:07:18.293Z,99813.10
2022-09-30T01:09:45.609Z,99809.26
2022-09-30T01:12:16.318Z,99815.73
2022-09-30T01:14:45.590Z,99818.02
2022-09-30T01:17:49.958Z,99810.81
2022-09-30T01:20:42.092Z,99807.81
2022-09-30T01:23:42.893Z,99816.02
2022-09-30T01:26:36.602Z,99805.16
2022-09-30T01:29:29.119Z,99799.76
2022-09-30T01:32:10.841Z,99809.07
2022-09-30T01:34:52.405Z,99817.11
2022-09-30T01:37:45.894Z,99818.70
2022-09-30T01:40:41.933Z,99816.45
2022-09-30T01:43:32.393Z,99823.13
2022-09-30T01:46:05.940Z,99822.08
2022-09-30T01:48:46.963Z,99823.31
2022-09-30T01:51:32.244Z,99828.05
2022-09-30T01:54:19.245Z,99834.71
2022-09-30T01:56:52.265Z,99832.42
2022-09-30T01:59:26.886Z,99838.38
2022-09-30T02:02:04.833Z,99844.85
2022-09-30T02:04:36.102Z,99850.63
2022-09-30T02:07:08.778Z,99851.38
2022-09-30T02:09:43.466Z,99853.14
2022-09-30T02:12:15.774Z,99855.21
2022-09-30T02:14:49.154Z,99857.81
2022-09-30T02:17:23.705Z,99859.04
2022-09-30T02:20:01.220Z,99865.36
2022-09-30T02:22:46.149Z,99872.39
2022-09-30T02:25:20.541Z,99878.91
2022-09-30T02:27:56.940Z,99881.02
2022-09-30T02:30:23.788Z,99871.58
2022-09-30T02:32:56.210Z,99870.33
2022-09-30T02:35:32.107Z,99874.72
2022-09-30T02:38:06.792Z,99882.60
2022-09-30T02:40:50.585Z,99880.52
2022-09-30T02:43:20.817Z,99883.34
2022-09-30T02:46:32.295Z,99882.30
2022-09-30T02:49:14.494Z,99883.70
2022-09-30T02:51:45.384Z,99884.39
2022-09-30T02:54:26.312Z,99882.65
2022-09-30T02:57:02.681Z,99895.63
2022-09-30T02:59:29.566Z,99897.21
2022-09-30T03:01:56.548Z,99898.77
2022-09-30T03:04:27.448Z,99900.17
2022-09-30T03:06:55.955Z,99896.34
2022-09-30T03:09:27.390Z,99897.21
2022-09-30T03:12:06.724Z,99895.45
2022-09-30T03:15:12.165Z,99894.04
2022-09-30T03:18:03.447Z,99903.66
2022-09-30T03:20:45.082Z,99898.59
2022-09-30T03:23:40.062Z,99892.64
2022-09-30T03:26:22.331Z,99892.29
2022-09-30T03:29:04.529Z,99896.84
2022-09-30T03:31:37.444Z,99903.86
2022-09-30T03:34:33.610Z,99909.83
2022-09-30T03:37:12.522Z,99916.30
2022-09-30T03:40:12.084Z,99920.15
2022-09-30T03:42:48.375Z,99909.65
2022-09-30T03:45:24.842Z,99909.48
2022-09-30T03:47:56.270Z,99909.32
2022-09-30T03:50:27.576Z,99908.25
2022-09-30T03:52:54.987Z,99906.86
2022-09-30T03:55:23.661Z,99912.63
2022-09-30T03:57:52.455Z,99916.13
2022-09-30T04:00:19.486Z,99909.83
2022-09-30T04:02:46.647Z,99906.33
2022-09-30T04:05:13.549Z,99907.73
2022-09-30T04:07:40.615Z,99913.69
2022-09-30T04:10:07.811Z,99914.38
2022-09-30T04:12:34.651Z,99916.83
2022-09-30T04:15:01.618Z,99922.77
2022-09-30T04:17:28.413Z,99923.64
2022-09-30T04:19:55.232Z,99926.45
2022-09-30T04:22:26.169Z,99933.45
2022-09-30T04:24:53.606Z,99940.10
2022-09-30T04:27:20.752Z,99943.44
2022-09-30T04:29:47.841Z,99948.16
2022-09-30T04:32:14.949Z,99956.73
2022-09-30T04:34:42.178Z,99963.38
2022-09-30T04:37:11.072Z,99963.04
2022-09-30T04:39:38.506Z,99961.80
2022-09-30T04:42:06.506Z,99967.23
2022-09-30T04:44:33.438Z,99969.17
2022-09-30T04:47:01.936Z,99971.63
2022-09-30T04:49:28.953Z,99970.92
2022-09-30T04:51:56.320Z,99973.55
2022-09-30T04:54:23.352Z,99968.48
2022-09-30T04:56:50.323Z,99964.44
2022-09-30T04:59:17.357Z,99964.27
2022-09-30T05:01:44.875Z,99973.73
2022-09-30T05:04:12.577Z,99978.27
2022-09-30T05:06:42.427Z,99980.02
2022-09-30T05:09:09.526Z,99985.27
2022-09-30T05:11:38.439Z,99991.23
2022-09-30T05:14:09.430Z,99995.95
2022-09-30T05:16:36.680Z,100003.65
2022-09-30T05:19:04.167Z,100004.69
2022-09-30T05:21:31.233Z,100002.60
2022-09-30T05:23:58.728Z,99996.83
2022-09-30T05:26:25.711Z,99989.48
2022-09-30T05:28:52.660Z,99992.27
2022-09-30T05:31:21.184Z,99992.27
2022-09-30T05:33:48.225Z,99993.15
2022-09-30T05:36:16.769Z,99997.35
2022-09-30T05:38:43.755Z,99991.91
2022-09-30T05:41:15.163Z,100001.38
2022-09-30T05:43:48.100Z,100008.22
2022-09-30T05:46:16.572Z,100015.74
2022-09-30T05:48:45.593Z,100020.30
2022-09-30T05:51:13.047Z,100020.81
2022-09-30T05:53:40.058Z,100019.05
2022-09-30T05:56:08.104Z,100021.67
2022-09-30T05:58:35.927Z,100017.46
2022-09-30T06:01:13.183Z,100019.03
2022-09-30T06:03:41.631Z,100016.91
2022-09-30T06:06:08.443Z,100020.23
2022-09-30T06:08:35.523Z,100023.92
2022-09-30T06:11:08.965Z,100026.89
2022-09-30T06:13:35.695Z,100029.51
2022-09-30T06:16:02.798Z,100035.10
2022-09-30T06:18:31.254Z,100033.52
2022-09-30T06:21:03.503Z,100038.05
2022-09-30T06:23:32.515Z,100046.83
2022-09-30T06:25:59.267Z,100043.81
2022-09-30T06:28:27.475Z,100042.75
2022-09-30T06:30:54.791Z,100051.69
2022-09-30T06:33:22.446Z,100052.19
2022-09-30T06:35:51.593Z,100053.58
2022-09-30T06:38:18.779Z,100053.20
2022-09-30T06:40:50.651Z,100050.55
2022-09-30T06:43:21.124Z,100050.71
2022-09-30T06:45:52.408Z,100053.34
2022-09-30T06:48:32.490Z,100056.48
2022-09-30T06:51:02.757Z,100058.05
2022-09-30T06:53:29.903Z,100060.50
2022-09-30T06:55:58.126Z,100059.09
2022-09-30T06:58:25.379Z,100057.85
2022-09-30T07:01:06.232Z,100056.09
2022-09-30T07:03:35.778Z,100057.83
2022-09-30T07:06:05.185Z,100058.32
2022-09-30T07:08:34.619Z,100064.95
2022-09-30T07:11:12.303Z,100060.35
2022-09-30T07:13:39.858Z,100061.55
2022-09-30T07:16:07.294Z,100066.44
2022-09-30T07:18:34.124Z,100068.14
2022-09-30T07:21:00.907Z,100064.77
2022-09-30T07:23:27.734Z,100061.41
2022-09-30T07:26:00.741Z,100062.89
2022-09-30T07:28:32.279Z,100067.16
2022-09-30T07:31:27.634Z,100073.24
2022-09-30T07:33:51.539Z,100079.64
2022-09-30T07:36:25.269Z,100080.80
2022-09-30T07:38:57.339Z,100078.48
2022-09-30T07:41:29.399Z,100075.26
2022-09-30T07:43:59.385Z,100083.42
2022-09-30T07:46:31.557Z,100083.13
2022-09-30T07:49:02.430Z,100088.98
2022-09-30T07:51:38.563Z,100093.95
2022-09-30T07:54:10.046Z,100093.20
2022-09-30T07:57:08.111Z,100094.91
2022-09-30T07:59:27.686Z,100103.29
2022-09-30T08:01:54.620Z,100106.74
2022-09-30T08:04:23.222Z,100112.27
2022-09-30T08:06:56.176Z,100112.36
2022-09-30T08:09:25.378Z,100117.02
2022-09-30T08:11:52.508Z,100115.86
2022-09-30T08:14:25.809Z,100121.25
2022-09-30T08:16:53.139Z,100121.66
2022-09-30T08:19:22.873Z,100118.92
2022-09-30T08:21:51.061Z,100125.80
2022-09-30T08:24:18.059Z,100128.30
2022-09-30T08:26:45.021Z,100123.76
2022-09-30T08:29:20.007Z,100126.62
2022-09-30T08:31:48.376Z,100125.65
2022-09-30T08:34:15.593Z,100123.24
2022-09-30T08:36:42.568Z,100128.78
2022-09-30T08:39:11.057Z,100130.86
2022-09-30T08:42:19.205Z,100132.39
2022-09-30T08:45:07.303Z,100134.86
2022-09-30T08:47:43.927Z,100135.39
2022-09-30T08:50:23.292Z,100136.31
2022-09-30T08:52:53.229Z,100138.26
2022-09-30T08:55:44.069Z,100141.73
2022-09-30T08:58:27.873Z,100143.59
2022-09-30T09:01:02.679Z,100144.23
2022-09-30T09:03:31.935Z,100139.39
2022-09-30T09:06:01.155Z,100144.23
2022-09-30T09:08:36.895Z,100148.08
2022-09-30T09:11:21.364Z,100151.27
2022-09-30T09:14:18.794Z,100154.23
2022-09-30T09:17:04.562Z,100152.55
2022-09-30T09:19:55.289Z,100152.30
2022-09-30T09:22:25.127Z,100155.82
2022-09-30T09:24:53.726Z,100156.04
2022-09-30T09:27:27.073Z,100154.48
2022-09-30T09:30:07.942Z,100151.54
2022-09-30T09:32:36.786Z,100153.06
2022-09-30T09:35:22.615Z,100154.25
2022-09-30T09:38:26.411Z,100154.22
2022-09-30T09:41:31.047Z,100153.27
2022-09-30T09:44:10.070Z,100153.04
2022-09-30T09:46:39.714Z,100152.63
2022-09-30T09:49:21.056Z,100148.33
2022-09-30T09:51:59.633Z,100138.64
2022-09-30T09:54:28.821Z,100137.13
2022-09-30T09:56:55.667Z,100143.80
2022-09-30T09:59:26.022Z,100137.70
2022-09-30T10:01:54.389Z,100134.51
2022-09-30T10:04:30.796Z,100134.83
2022-09-30T10:07:02.254Z,100135.11
2022-09-30T10:09:30.427Z,100134.30
2022-09-30T10:12:06.306Z,100130.52
2022-09-30T10:14:46.506Z,100128.52
2022-09-30T10:17:31.466Z,100128.30
2022-09-30T10:20:02.594Z,100122.59
2022-09-30T10:22:32.083Z,100120.11
2022-09-30T10:25:19.071Z,100120.94
2022-09-30T10:27:48.616Z,100121.66
2022-09-30T10:30:35.828Z,100124.45
2022-09-30T10:33:04.609Z,100128.48
2022-09-30T10:35:31.836Z,100129.62
2022-09-30T10:38:00.777Z,100132.31
2022-09-30T10:40:30.569Z,100137.62
2022-09-30T10:42:58.607Z,100142.56
2022-09-30T10:45:32.271Z,100143.13
2022-09-30T10:48:07.104Z,100143.18
2022-09-30T10:50:33.988Z,100139.50
2022-09-30T10:53:12.223Z,100140.86
2022-09-30T10:55:44.346Z,100138.98
2022-09-30T10:58:35.681Z,100138.02
2022-09-30T11:01:24.071Z,100137.07
2022-09-30T11:04:16.091Z,100138.20
2022-09-30T11:06:45.906Z,100139.65
2022-09-30T11:09:31.739Z,100139.38
2022-09-30T11:12:10.309Z,100138.54
2022-09-30T11:14:49.245Z,100136.29
2022-09-30T11:17:45.067Z,100135.71
2022-09-30T11:20:20.241Z,100134.92
2022-09-30T11:23:24.935Z,100136.10
2022-09-30T11:26:07.233Z,100132.30
2022-09-30T11:29:04.737Z,100131.10
2022-09-30T11:31:38.037Z,100134.52
2022-09-30T11:34:45.353Z,100137.45
2022-09-30T11:37:27.421Z,100132.63
2022-09-30T11:40:18.815Z,100133.85
2022-09-30T11:42:54.544Z,100133.98
2022-09-30T11:45:54.290Z,100136.20
2022-09-30T11:48:39.445Z,100132.04
2022-09-30T11:51:28.749Z,100130.70
2022-09-30T11:54:20.919Z,100130.71
2022-09-30T11:57:02.809Z,100134.46
2022-09-30T11:59:35.741Z,100134.48
2022-09-30T12:02:10.327Z,100137.35
2022-09-30T12:04:43.999Z,100134.59
2022-09-30T12:07:18.111Z,100136.38
2022-09-30T12:09:51.614Z,100136.56
2022-09-30T12:12:19.995Z,100130.51
2022-09-30T12:15:01.089Z,100133.37
2022-09-30T12:17:39.401Z,100136.77
2022-09-30T12:20:27.875Z,100132.78
2022-09-30T12:23:02.096Z,100131.95
2022-09-30T12:25:33.496Z,100125.88
2022-09-30T12:28:41.326Z,100124.98
2022-09-30T12:31:24.252Z,100126.96
2022-09-30T12:34:09.483Z,100124.65
2022-09-30T12:36:50.930Z,100123.88
2022-09-30T12:39:36.306Z,100122.91
2022-09-30T12:42:35.615Z,100123.77
2022-09-30T12:45:28.077Z,100124.98
2022-09-30T12:47:59.478Z,100122.53
2022-09-30T12:50:29.847Z,100123.88
2022-09-30T12:52:58.228Z,100119.89
2022-09-30T12:55:31.357Z,100120.96
2022-09-30T12:58:01.687Z,100119.10
2022-09-30T13:00:34.854Z,100118.62
2022-09-30T13:03:09.137Z,100115.29
2022-09-30T13:05:52.140Z,100120.80
2022-09-30T13:08:24.261Z,100116.26
2022-09-30T13:11:31.580Z,100120.34
2022-09-30T13:14:26.625Z,100117.91
2022-09-30T13:17:03.625Z,100110.66
2022-09-30T13:19:40.514Z,100109.90
2022-09-30T13:22:24.790Z,100106.52
2022-09-30T13:25:00.870Z,100108.32
2022-09-30T13:27:41.098Z,100111.03
2022-09-30T13:30:13.694Z,100107.42
2022-09-30T13:32:51.699Z,100113.86
2022-09-30T13:35:48.836Z,100113.31
2022-09-30T13:38:15.658Z,100113.02
2022-09-30T13:41:19.049Z,100109.48
2022-09-30T13:44:05.352Z,100108.36
2022-09-30T13:46:37.425Z,100106.86
2022-09-30T13:49:26.982Z,100105.88
2022-09-30T13:51:55.211Z,100106.87
2022-09-30T13:54:37.878Z,100104.45
2022-09-30T13:57:07.630Z,100102.58
2022-09-30T14:00:12.536Z,100098.96
2022-09-30T14:03:04.260Z,100099.60
2022-09-30T14:05:42.267Z,100098.89
2022-09-30T14:08:09.601Z,100100.08
2022-09-30T14:10:57.257Z,100098.71
2022-09-30T14:13:51.139Z,100100.63
2022-09-30T14:16:49.028Z,100104.45
2022-09-30T14:19:23.099Z,100103.10
2022-09-30T14:21:53.638Z,100110.99
2022-09-30T14:24:26.935Z,100111.20
2022-09-30T14:26:59.664Z,100108.45
2022-09-30T14:29:51.688Z,100109.77
2022-09-30T14:32:32.006Z,100114.48
2022-09-30T14:35:04.576Z,100118.34
2022-09-30T14:37:37.058Z,100121.95
2022-09-30T14:40:10.801Z,100124.55
2022-09-30T14:42:40.379Z,100121.22
2022-09-30T14:45:09.719Z,100125.70
2022-09-30T14:47:59.688Z,100125.55
2022-09-30T14:50:33.824Z,100126.17
2022-09-30T14:53:03.539Z,100124.33
2022-09-30T14:55:35.698Z,100120.52
2022-09-30T14:58:40.884Z,100118.65
2022-09-30T15:01:13.265Z,100123.95
2022-09-30T15:03:43.156Z,100122.98
2022-09-30T15:06:38.086Z,100123.95
2022-09-30T15:09:15.114Z,100122.60
2022-09-30T15:11:42.856Z,100125.69
2022-09-30T15:14:21.954Z,100125.79
2022-09-30T15:16:55.654Z,100130.33
2022-09-30T15:19:28.150Z,100126.31
2022-09-30T15:21:58.928Z,100125.48
2022-09-30T15:24:27.810Z,100128.54
2022-09-30T15:26:55.841Z,100131.30
2022-09-30T15:29:23.135Z,100137.16
2022-09-30T15:32:03.278Z,100137.98
2022-09-30T15:34:35.131Z,100139.10
2022-09-30T15:37:07.588Z,100134.77
2022-09-30T15:39:59.334Z,100133.46
2022-09-30T15:42:37.853Z,100137.21
2022-09-30T15:45:35.509Z,100139.44
2022-09-30T15:48:07.799Z,100142.21
2022-09-30T15:50:39.105Z,100142.46
2022-09-30T15:53:22.630Z,100145.44
2022-09-30T15:55:56.015Z,100145.53
2022-09-30T15:58:40.040Z,100140.10
2022-09-30T16:01:35.725Z,100143.72
2022-09-30T16:04:17.935Z,100143.02
2022-09-30T16:06:47.586Z,100145.71
2022-09-30T16:09:24.424Z,100143.52
2022-09-30T16:12:07.643Z,100147.77
2022-09-30T16:14:49.384Z,100153.45
2022-09-30T16:17:26.787Z,100157.95
2022-09-30T16:20:01.251Z,100160.84
2022-09-30T16:22:52.528Z,100160.52
2022-09-30T16:25:29.144Z,100161.64
2022-09-30T16:28:02.653Z,100166.81
2022-09-30T16:30:32.465Z,100168.27
2022-09-30T16:33:09.298Z,100169.91
2022-09-30T16:35:36.456Z,100177.23
2022-09-30T16:38:07.868Z,100182.19
2022-09-30T16:40:39.667Z,100188.41
2022-09-30T16:43:08.063Z,100191.25
2022-09-30T16:45:35.636Z,100193.91
2022-09-30T16:48:06.148Z,100197.29
2022-09-30T16:50:42.279Z,100198.74
2022-09-30T16:53:12.044Z,100199.98
2022-09-30T16:55:38.911Z,100207.76
2022-09-30T16:58:06.055Z,100210.45
2022-09-30T17:00:34.370Z,100213.17
2022-09-30T17:03:01.421Z,100211.06
2022-09-30T17:05:28.465Z,100208.46
2022-09-30T17:07:58.201Z,100210.27
2022-09-30T17:10:30.518Z,100209.78
2022-09-30T17:13:03.386Z,100210.15
2022-09-30T17:15:32.158Z,100212.63
2022-09-30T17:17:59.914Z,100214.77
2022-09-30T17:20:27.415Z,100212.48
2022-09-30T17:22:54.730Z,100206.49
2022-09-30T17:25:21.779Z,100200.98
2022-09-30T17:27:52.101Z,100200.83
2022-09-30T17:30:20.365Z,100206.16
2022-09-30T17:32:48.001Z,100209.55
2022-09-30T17:35:15.331Z,100209.41
2022-09-30T17:37:45.504Z,100211.88
2022-09-30T17:40:33.047Z,100211.39
2022-09-30T17:43:11.159Z,100213.73
2022-09-30T17:45:41.410Z,100212.75
2022-09-30T17:48:09.651Z,100206.08
2022-09-30T17:50:44.693Z,100208.22
2022-09-30T17:53:13.514Z,100209.64
2022-09-30T17:55:41.879Z,100221.82
2022-09-30T17:58:09.677Z,100220.52
2022-09-30T18:00:37.832Z,100220.26
2022-09-30T18:03:06.264Z,100225.48
2022-09-30T18:05:33.713Z,100227.17
2022-09-30T18:08:00.773Z,100227.48
2022-09-30T18:10:28.500Z,100224.49
2022-09-30T18:12:55.653Z,100222.04
2022-09-30T18:15:23.610Z,100223.83
2022-09-30T18:17:50.610Z,100224.89
2022-09-30T18:20:20.730Z,100224.92
2022-09-30T18:22:50.311Z,100221.81
2022-09-30T18:25:20.461Z,100218.88
2022-09-30T18:27:52.907Z,100214.71
2022-09-30T18:30:21.368Z,100213.19
2022-09-30T18:32:50.096Z,100209.31
2022-09-30T18:35:20.233Z,100206.32
2022-09-30T18:37:49.963Z,100205.98
2022-09-30T18:40:22.735Z,100200.18
2022-09-30T18:42:58.605Z,100198.92
2022-09-30T18:45:26.642Z,100204.80
2022-09-30T18:47:56.101Z,100202.35
2022-09-30T18:50:23.769Z,100210.69
2022-09-30T18:52:52.894Z,100217.39
2022-09-30T18:55:20.686Z,100224.27
2022-09-30T18:57:51.840Z,100227.81
2022-09-30T19:00:21.246Z,100223.22
2022-09-30T19:02:48.544Z,100227.11
2022-09-30T19:05:17.901Z,100216.84
2022-09-30T19:07:44.898Z,100210.77
2022-09-30T19:10:15.864Z,100202.58
2022-09-30T19:12:44.821Z,100203.60
2022-09-30T19:15:16.338Z,100207.23
2022-09-30T19:17:44.924Z,100213.85
2022-09-30T19:20:13.182Z,100214.17
2022-09-30T19:22:40.354Z,100218.42
2022-09-30T19:25:12.750Z,100217.75
2022-09-30T19:27:42.289Z,100219.41
2022-09-30T19:30:12.259Z,100218.23
2022-09-30T19:32:39.521Z,100220.18
2022-09-30T19:35:12.145Z,100221.95
2022-09-30T19:37:44.026Z,100221.98
2022-09-30T19:40:21.838Z,100220.28
2022-09-30T19:42:50.076Z,100215.95
2022-09-30T19:45:22.059Z,100207.33
2022-09-30T19:47:51.488Z,100206.46
2022-09-30T19:50:18.428Z,100217.09
2022-09-30T19:52:56.234Z,100228.61
2022-09-30T19:55:25.884Z,100242.02
2022-09-30T19:57:53.588Z,100243.23
2022-09-30T20:00:20.791Z,100246.65
2022-09-30T20:02:47.573Z,100246.32
2022-09-30T20:05:15.010Z,100238.45
2022-09-30T20:07:42.072Z,100242.17
2022-09-30T20:10:10.102Z,100240.39
2022-09-30T20:12:37.730Z,100237.72
2022-09-30T20:15:23.925Z,100227.25
2022-09-30T20:17:50.809Z,100214.70
2022-09-30T20:20:36.718Z,100209.29
2022-09-30T20:23:03.950Z,100206.22
2022-09-30T20:25:32.400Z,100211.66
2022-09-30T20:27:59.479Z,100219.57
2022-09-30T20:30:30.117Z,100225.60
2022-09-30T20:32:57.206Z,100228.27
2022-09-30T20:35:24.890Z,100228.48
2022-09-30T20:37:54.251Z,100223.20
2022-09-30T20:40:21.476Z,100221.59
2022-09-30T20:42:48.664Z,100227.20
2022-09-30T20:45:18.480Z,100223.41
2022-09-30T20:47:48.158Z,100215.98
2022-09-30T20:50:35.181Z,100213.84
2022-09-30T20:53:11.981Z,100217.03
2022-09-30T20:55:43.839Z,100220.23
2022-09-30T20:58:11.789Z,100225.02
2022-09-30T21:00:41.082Z,100222.77
2022-09-30T21:03:10.303Z,100221.83
2022-09-30T21:05:38.000Z,100212.99
2022-09-30T21:08:07.461Z,100207.97
2022-09-30T21:10:37.530Z,100207.08
2022-09-30T21:13:10.379Z,100206.59
2022-09-30T21:15:39.481Z,100211.10
2022-09-30T21:18:07.442Z,100212.57
2022-09-30T21:20:35.091Z,100205.71
2022-09-30T21:23:03.683Z,100202.40
2022-09-30T21:25:32.273Z,100198.96
2022-09-30T21:27:59.550Z,100199.71
2022-09-30T21:30:27.250Z,100204.30
2022-09-30T21:32:54.531Z,100202.06
2022-09-30T21:35:21.372Z,100207.05
2022-09-30T21:37:49.398Z,100205.27
2022-09-30T21:40:16.261Z,100205.36
2022-09-30T21:42:43.106Z,100196.59
2022-09-30T21:45:10.309Z,100193.73
2022-09-30T21:47:37.166Z,100192.96
2022-09-30T21:50:06.735Z,100193.45
2022-09-30T21:52:34.183Z,100194.60
2022-09-30T21:55:01.233Z,100195.88
2022-09-30T21:57:29.302Z,100201.15
2022-09-30T21:59:56.454Z,100205.57
2022-09-30T22:02:24.272Z,100203.69
2022-09-30T22:04:51.385Z,100204.20
2022-09-30T22:07:18.276Z,100197.83
2022-09-30T22:09:45.214Z,100199.71
2022-09-30T22:12:12.320Z,100198.45
2022-09-30T22:14:39.456Z,100201.50
2022-09-30T22:17:10.236Z,100200.02
2022-09-30T22:19:38.354Z,100199.96
2022-09-30T22:22:05.301Z,100198.85
2022-09-30T22:24:32.327Z,100201.10
2022-09-30T22:26:59.255Z,100201.96
2022-09-30T22:29:26.578Z,100205.04
2022-09-30T22:31:53.627Z,100207.52
2022-09-30T22:34:39.319Z,100208.84
2022-09-30T22:37:25.199Z,100205.61
2022-09-30T22:39:52.097Z,100203.40
2022-09-30T22:42:19.073Z,100202.86
2022-09-30T22:44:47.773Z,100202.42
2022-09-30T22:47:14.926Z,100202.95
2022-09-30T22:49:41.870Z,100206.41
2022-09-30T22:52:09.519Z,100211.99
2022-09-30T22:54:37.841Z,100213.16
2022-09-30T22:57:05.874Z,100215.57
2022-09-30T22:59:32.722Z,100214.58
2022-09-30T23:01:59.714Z,100203.55
2022-09-30T23:04:27.397Z,100202.64
2022-09-30T23:06:56.222Z,100211.74
2022-09-30T23:09:23.467Z,100212.54
2022-09-30T23:11:54.014Z,100210.32
2022-09-30T23:14:22.415Z,100208.98
2022-09-30T23:16:50.138Z,100215.98
2022-09-30T23:19:17.030Z,100220.27
2022-09-30T23:21:44.077Z,100216.17
2022-09-30T23:24:11.060Z,100213.48
2022-09-30T23:26:38.179Z,100216.48
2022-09-30T23:29:07.977Z,100218.09
2022-09-30T23:31:35.196Z,100215.30
2022-09-30T23:34:03.960Z,100210.48
2022-09-30T23:36:33.819Z,100209.36
2022-09-30T23:39:04.938Z,100204.77
2022-09-30T23:41:33.056Z,100200.58
2022-09-30T23:44:01.649Z,100196.34
2022-09-30T23:46:28.718Z,100194.90
2022-09-30T23:48:55.667Z,100191.83
2022-09-30T23:51:23.147Z,100191.15
2022-09-30T23:53:50.504Z,100194.82
2022-09-30T23:56:19.265Z,100196.47
2022-09-30T23:58:47.033Z,100199.55
